Jose Marti International Airport

Airport
ICAO code: 
MUHA
IATA Code: 
HAV
Summary
ICAO Region: 
CARSAM
Territory: 
Location: 
Boyeros, Havana
Serving: 
Havana
Elevation: 
210 ft
Coordinates: 
Aerial View: 
22° 59' 23.366" N, 82° 24' 29.841" W
Airport WX: 
Tropical Revolving Storm
Metar
Observation
MUHA 180450Z VRB01KT 9000 SCT039 15/15 Q1019
Station
Aeropuerto Jose Marti, Rancho-Boyeros, Habana
Date/Time
2022-01-18 04:50:00
Wind speed
01 kts
Lowest cloud amount
scattered clouds
Temperature
15°C
Dew point
15°C
Humidity
100%
QNH
1019 hPa
Weather condition
n/a

José Martí International Airport, previously called El Rancho Boyeros International Airport, is located 15 km southwest of Havana, Cuba, and is a hub for Cubana de Aviación, Aerogaviota and Aerocaribbean. The airport lies in the municipality of Boyeros.

Climatology

Tropical Savanna climate (Köppen climate classification Aw)

Runways

Designator Length Width Surface Rops
6/24 4000 45 ASP Yes/Yes
Airport map: 
Aerial View: 

SKYbrary Partners:

Safety knowledge contributed by: